Date,TemperatureHighF,TemperatureAvgF,TemperatureLowF,DewpointHighF,DewpointAvgF,DewpointLowF,HumidityHigh,HumidityAvg,HumidityLow,PressureMaxIn,PressureMinIn,WindSpeedMaxMPH,WindSpeedAvgMPH,GustSpeedMaxMPH,PrecipitationSumIn
2013-1-1,56,48,39,55,43,-100,96,85,69,30.22,29.91,7,2,17,0.07
2013-1-2,44,38,33,33,29,27,82,71,55,30.32,30.21,5,1,13,0.01
2013-1-3,45,38,28,33,29,25,92,74,57,30.42,30.29,5,1,11,0.00
2013-1-4,43,39,35,38,35,31,92,86,64,30.49,30.35,6,0,10,0.24
2013-1-5,52,42,39,43,39,37,94,89,70,30.36,30.22,5,0,9,0.17
2013-1-6,42,38,35,34,32,31,84,78,68,30.31,30.29,0,0,4,0.01
2013-1-7,55,42,28,41,34,26,92,74,49,30.29,30.02,5,1,12,0.01
2013-1-8,51,49,46,50,47,41,95,91,70,30.02,29.83,9,2,18,1.03
2013-1-9,59,55,51,56,54,50,96,94,89,29.95,29.78,10,2,19,2.14
2013-1-10,65,53,46,51,46,43,95,78,50,29.98,29.91,12,2,24,0.01
2013-1-11,74,59,44,64,53,42,93,82,57,29.96,29.75,12,3,22,0.01
2013-1-12,73,66,46,67,60,34,94,82,57,29.84,29.58,11,4,24,0.01
2013-1-13,50,43,37,34,29,25,70,59,44,30.15,29.84,13,6,22,0.01
2013-1-14,50,40,33,31,26,22,68,60,44,30.23,30.07,7,3,15,0.00
2013-1-15,41,36,34,33,31,24,91,81,64,30.23,30.07,10,4,25,0.04
2013-1-16,52,38,27,28,23,18,75,56,26,30.32,30.15,11,3,21,0.01
2013-1-17,64,46,31,39,31,24,83,60,33,30.45,30.25,8,2,15,0.00
2013-1-18,65,47,31,38,34,28,90,65,30,30.48,30.26,5,1,12,0.00
2013-1-19,68,54,42,49,43,37,92,69,43,30.27,30.08,12,2,18,0.00
2013-1-20,73,54,39,50,42,36,91,68,36,30.19,30.01,5,1,13,0.00
2013-1-21,72,55,41,51,44,38,92,69,40,30.19,30.07,4,1,9,0.00
2013-1-22,72,55,41,52,45,37,89,69,46,30.26,30.12,8,2,16,0.00
2013-1-23,75,60,48,58,52,45,93,75,53,30.27,30.11,9,2,18,0.00
2013-1-24,81,66,55,62,58,51,93,76,50,30.17,30.01,9,2,18,0.00
2013-1-25,81,67,54,62,58,47,89,74,50,30.09,29.94,9,3,17,0.00
2013-1-26,63,55,49,57,51,46,93,87,78,30.13,30.01,4,0,9,0.00
2013-1-27,78,67,56,64,61,54,92,81,59,30.05,29.87,12,5,23,0.00
2013-1-28,69,69,69,64,64,64,84,84,84,29.93,29.93,6,5,15,0.00
2013-1-30,58,50,39,29,24,17,61,38,22,30.15,29.92,16,8,35,0.00
2013-1-31,68,56,34,32,26,22,63,34,19,30.24,30.11,11,4,21,0.00
2013-2-1,70,55,41,42,35,30,70,50,30,30.31,30.10,12,2,20,0.00
2013-2-2,77,60,45,55,46,38,90,62,36,30.24,30.09,8,1,14,0.00
2013-2-3,70,59,43,47,39,30,80,51,25,30.29,29.96,7,2,17,0.00
2013-2-4,76,64,56,59,54,47,89,74,51,29.96,29.72,10,2,17,0.01
2013-2-5,81,62,48,52,48,42,92,65,27,29.93,29.79,5,0,12,0.01
2013-2-6,75,64,58,61,56,49,92,78,55,29.92,29.75,8,2,16,0.05
2013-2-7,83,67,59,60,53,40,92,65,27,30.02,29.77,10,3,19,0.02
2013-2-8,69,57,48,47,36,27,68,47,23,30.17,30.02,6,2,15,0.00
2013-2-9,68,57,52,65,53,37,94,86,56,30.04,29.71,9,5,23,0.00
2013-2-10,69,61,53,66,47,32,92,64,29,29.95,29.67,15,2,29,0.10
2013-2-11,59,54,51,49,44,36,84,70,47,30.03,29.91,7,2,17,0.13
2013-2-12,71,57,49,55,45,26,94,70,23,30.01,29.75,12,4,27,0.03
2013-2-13,63,49,37,38,34,29,83,60,29,30.12,29.97,12,3,24,0.01
2013-2-14,72,54,34,43,36,31,91,58,27,30.09,29.92,8,1,16,0.00
2013-2-15,61,50,39,40,35,25,82,58,44,30.35,30.00,9,3,18,0.01
2013-2-16,67,48,31,36,29,25,81,53,26,30.42,30.16,7,1,14,0.01
2013-2-17,70,56,38,50,37,28,80,50,31,30.16,29.91,16,6,28,0.00
2013-2-18,81,67,57,59,47,28,80,54,18,30.02,29.75,14,7,25,0.00
2013-2-19,66,57,43,34,31,26,63,39,23,30.21,30.01,8,3,17,0.00
2013-2-20,63,56,52,61,46,33,95,71,41,30.06,29.59,12,6,24,0.04
2013-2-21,77,66,50,65,44,24,95,53,16,29.80,29.50,16,6,31,0.05
2013-2-22,60,49,40,39,33,28,75,56,37,30.01,29.75,7,2,18,0.00
2013-2-23,70,52,37,38,33,28,76,49,26,30.03,29.82,9,1,21,0.00
2013-2-24,73,57,39,57,45,35,88,66,44,29.87,29.52,10,4,22,0.00
2013-2-25,61,55,46,59,36,23,92,53,25,29.78,29.47,26,12,46,0.00
2013-2-26,67,52,38,35,30,28,67,46,26,29.91,29.78,14,4,26,0.00
2013-2-27,62,53,45,35,29,21,58,40,24,30.18,29.80,14,4,28,0.00
2013-2-28,62,49,40,30,27,22,65,43,25,30.29,30.13,10,3,21,0.00
2013-3-1,69,50,32,31,27,21,75,45,18,30.25,30.06,12,2,23,0.00
2013-3-2,63,50,38,35,29,25,67,48,28,30.38,30.20,10,3,24,0.00
2013-3-3,75,58,40,43,34,27,66,42,24,30.22,29.85,20,5,27,0.00
2013-3-4,91,70,55,51,46,41,76,47,21,29.85,29.59,11,4,23,0.00
2013-3-5,69,57,43,54,28,16,65,38,16,30.31,29.66,18,6,34,0.00
2013-3-6,63,49,32,32,22,17,63,37,19,30.42,30.16,6,1,12,0.00
2013-3-7,72,56,42,53,43,32,76,62,39,30.19,30.01,11,3,24,0.00
2013-3-8,65,60,57,62,56,51,95,86,72,30.08,29.93,11,4,20,0.02
2013-3-9,73,66,62,66,62,57,91,85,75,29.95,29.56,17,8,35,0.20
2013-3-10,66,58,48,62,42,32,93,59,36,30.06,29.58,13,5,27,0.93
2013-3-11,69,50,35,39,31,22,92,53,22,30.14,29.94,11,2,23,0.03
2013-3-12,80,59,39,41,37,34,89,51,21,30.18,29.98,13,2,21,0.00
2013-3-13,76,62,48,42,37,32,59,42,27,30.37,30.17,7,2,15,0.00
2013-3-14,78,63,47,52,45,38,88,55,33,30.32,30.13,11,4,19,0.00
2013-3-15,81,67,54,54,49,42,87,57,30,30.16,29.90,13,6,25,0.00
2013-3-16,84,69,59,61,55,49,84,63,36,29.93,29.64,14,8,28,0.00
2013-3-17,85,72,66,62,60,59,81,67,44,29.72,29.55,15,5,23,0.00
2013-3-18,86,73,63,65,55,45,91,59,24,29.87,29.61,10,3,18,0.00
2013-3-19,84,66,49,63,52,43,83,62,41,29.93,29.74,9,2,17,0.00
2013-3-20,71,61,51,52,44,34,91,58,26,30.18,29.92,11,3,25,0.09
2013-3-21,76,64,55,59,52,40,79,64,54,29.96,29.51,16,6,31,0.09
2013-3-22,85,72,57,65,60,46,88,70,47,29.70,29.54,10,3,17,0.00
2013-3-23,81,61,50,60,51,45,90,73,41,29.74,29.51,6,2,14,0.00
2013-3-24,62,52,42,57,32,23,89,51,28,30.11,29.62,15,8,34,0.00
2013-3-25,60,47,35,26,22,17,57,38,21,30.34,30.11,8,1,16,0.00
2013-3-26,65,50,31,28,24,21,76,40,20,30.45,30.23,6,1,12,0.00
2013-3-27,68,56,44,47,38,25,63,50,37,30.26,30.07,14,5,25,0.00
2013-3-28,74,63,55,59,54,47,84,73,58,30.13,30.03,12,5,23,0.00
2013-3-29,76,68,59,59,57,55,89,70,51,30.10,29.96,13,5,22,0.00
2013-3-30,83,71,64,62,59,-100,86,69,46,30.03,29.80,15,5,24,0.00
2013-3-31,80,71,65,66,62,60,86,76,55,29.89,29.77,7,2,19,0.00
2013-4-1,84,71,57,64,60,54,92,70,45,29.98,29.80,10,2,21,0.00
2013-4-2,75,67,61,65,62,49,95,86,68,29.92,29.74,21,2,36,1.72
2013-4-3,55,51,48,54,49,45,95,93,89,30.10,29.78,20,4,35,0.87
2013-4-4,61,50,46,46,42,39,90,75,56,30.18,30.05,13,4,23,0.01
2013-4-5,72,55,39,48,43,37,93,68,39,30.23,29.99,6,1,12,0.00
2013-4-6,80,66,52,59,53,46,87,65,47,30.00,29.76,15,6,24,0.00
2013-4-7,82,70,63,64,60,56,84,73,53,29.83,29.65,11,7,21,0.00
2013-4-8,74,69,66,66,63,60,88,82,75,29.74,29.58,12,5,25,0.00
2013-4-9,85,74,69,69,66,64,87,77,53,29.63,29.49,14,7,23,0.00
2013-4-10,74,56,43,68,50,40,92,81,65,29.90,29.54,16,6,28,0.15
2013-4-11,72,54,44,44,39,35,80,58,33,29.94,29.74,11,2,19,0.01
2013-4-12,80,62,43,50,44,40,91,59,27,29.94,29.77,7,2,15,0.00
2013-4-13,65,59,54,52,49,46,84,68,58,29.88,29.85,6,1,15,0.00
2013-4-15,88,81,74,67,66,64,75,61,48,29.71,29.61,7,4,18,0.00
2013-4-16,85,76,69,69,66,62,83,72,57,29.80,29.70,9,4,26,0.00
2013-4-17,82,76,72,71,69,67,93,80,63,29.79,29.57,12,5,24,0.00
2013-4-18,74,64,49,71,58,43,91,83,62,29.86,29.55,19,8,36,0.13
2013-4-19,65,57,52,35,31,28,52,39,25,30.16,30.09,3,0,8,0.00
2013-4-20,71,58,41,46,35,30,85,46,24,30.17,29.92,8,2,22,0.00
2013-4-21,77,64,51,56,51,45,83,64,45,30.08,29.92,8,3,19,0.00
2013-4-22,83,70,57,61,57,53,89,66,45,30.02,29.77,12,4,22,0.00
2013-4-23,75,65,50,65,56,40,85,75,60,30.07,29.75,13,4,22,0.00
2013-4-24,66,53,44,40,37,31,78,57,36,30.23,30.06,11,4,23,0.00
2013-4-25,67,60,54,47,43,40,61,53,42,30.28,30.10,6,1,13,0.00
2013-4-26,76,68,59,69,61,44,95,81,48,30.11,29.93,8,2,18,0.02
2013-4-27,85,75,69,69,66,62,92,75,47,30.00,29.84,7,1,16,0.02
2013-4-28,88,74,63,65,62,57,92,68,40,29.96,29.75,7,1,17,0.01
2013-4-29,85,73,66,67,64,60,90,75,47,29.84,29.68,10,2,26,0.04
2013-4-30,83,73,64,65,63,61,92,74,52,29.76,29.62,9,2,17,0.04
2013-5-1,87,76,67,67,65,63,89,70,49,29.85,29.70,8,2,15,0.00
2013-5-2,77,67,62,65,61,57,92,81,65,29.92,29.81,15,2,30,0.07
2013-5-3,69,61,47,40,28,-100,65,32,23,30.29,30.02,13,6,28,0.00
2013-5-4,82,63,42,44,37,33,74,44,19,30.03,29.80,11,2,18,0.00
2013-5-5,76,63,49,48,43,36,65,48,34,30.09,29.91,9,1,18,0.00
2013-5-6,75,63,49,51,48,44,85,60,40,30.08,29.92,2,0,11,0.00
2013-5-7,86,69,49,56,51,45,88,57,30,30.02,29.84,6,2,16,0.00
2013-5-8,84,73,63,64,61,54,86,67,51,29.92,29.78,13,4,24,0.00
2013-5-9,79,71,65,69,65,59,91,82,70,29.91,29.73,9,2,23,0.03
2013-5-10,88,69,61,66,59,-100,93,76,38,29.96,29.72,21,2,41,1.28
2013-5-11,80,68,60,63,56,-100,95,69,38,30.08,29.93,10,2,19,1.14
2013-5-12,81,68,55,56,51,44,91,59,30,30.20,30.04,5,1,15,0.01
2013-5-13,86,69,51,56,51,47,87,57,27,30.20,30.06,7,1,16,0.00
2013-5-14,86,74,62,67,60,55,85,64,40,30.14,29.90,10,3,23,0.00
2013-5-15,85,74,65,71,67,62,94,81,60,30.00,29.71,13,5,27,0.65
2013-5-16,92,73,69,72,49,-100,93,77,47,29.78,29.60,10,4,23,0.06
2013-5-17,93,81,74,74,66,-100,86,71,49,29.78,29.67,10,4,19,0.05
2013-5-18,94,81,72,71,68,63,88,65,45,29.81,29.70,13,5,28,0.00
2013-5-19,91,80,72,72,68,65,84,68,51,29.75,29.61,11,6,23,0.00
2013-5-20,92,81,73,71,69,66,86,69,49,29.74,29.58,13,6,22,0.00
2013-5-21,88,78,71,72,69,58,86,73,59,29.79,29.60,12,5,30,0.00
2013-5-22,91,77,59,71,60,55,90,60,35,29.85,29.71,6,1,13,0.00
2013-5-23,88,80,74,72,70,69,87,73,58,29.94,29.77,9,3,18,0.00
2013-5-24,81,73,66,72,69,64,95,87,71,30.03,29.91,10,1,29,1.00
2013-5-25,82,73,67,72,69,65,96,87,65,30.05,29.94,11,2,28,0.85
2013-5-26,85,78,72,73,70,67,92,78,62,30.00,29.87,13,4,23,0.05
2013-5-27,89,78,71,71,69,67,88,75,55,29.93,29.73,13,5,25,0.00
2013-5-28,88,79,73,70,69,67,84,71,52,29.80,29.66,16,7,26,0.00
2013-5-29,86,78,73,73,70,68,86,77,61,29.78,29.61,15,8,30,0.02
2013-5-30,87,80,75,72,71,69,82,73,61,29.74,29.65,12,6,23,0.02
2013-5-31,91,82,76,74,72,70,85,73,56,29.78,29.64,12,6,25,0.00
2013-6-1,94,84,76,74,72,70,84,69,49,29.79,29.68,13,5,26,0.00
2013-6-2,90,78,67,72,64,58,90,65,36,29.98,29.79,9,1,18,0.08
2013-6-3,95,79,64,67,63,59,92,62,33,29.91,29.74,5,1,11,0.01
2013-6-4,93,82,70,68,66,64,89,62,38,29.81,29.69,9,2,16,0.00
2013-6-5,92,82,71,70,67,64,87,63,41,29.80,29.64,9,3,24,0.00
2013-6-6,98,83,72,71,67,62,89,61,36,29.84,29.67,10,2,20,0.00
2013-6-7,87,77,68,64,60,53,83,59,33,29.92,29.79,5,1,11,0.00
2013-6-8,90,77,62,70,62,55,87,62,46,29.85,29.69,8,2,19,0.00
2013-6-9,88,80,67,72,70,64,94,74,55,29.89,29.74,8,1,18,0.66
2013-6-10,94,82,70,73,69,61,91,66,35,29.91,29.80,6,1,16,0.08
2013-6-11,93,82,74,72,70,64,89,69,47,29.93,29.84,12,2,26,0.00
2013-6-12,95,83,75,74,71,69,88,70,44,29.96,29.84,8,3,17,0.00
2013-6-13,95,82,76,74,71,65,88,70,46,29.97,29.84,13,1,22,0.00
2013-6-14,91,79,74,75,72,69,88,79,56,29.91,29.84,7,0,13,0.00
2013-6-16,90,86,83,73,69,68,72,58,49,29.84,29.80,13,2,21,0.00
2013-6-17,97,86,76,73,70,65,83,62,39,29.91,29.74,13,3,21,0.00
2013-6-18,93,82,69,76,71,67,94,72,51,29.93,29.78,10,1,17,0.32
2013-6-19,95,85,75,72,70,66,87,63,43,29.88,29.79,13,2,25,0.02
2013-6-20,95,82,75,71,69,65,86,67,39,29.96,29.83,12,5,21,0.00
2013-6-22,96,91,81,70,66,64,69,45,36,29.95,29.78,10,6,22,0.00
2013-6-23,93,84,76,72,67,59,85,59,36,29.88,29.78,11,4,21,0.00
2013-6-24,97,85,76,72,69,65,84,62,39,29.93,29.78,12,5,24,0.00
2013-6-25,99,86,77,72,69,65,84,59,34,29.90,29.75,14,7,24,0.00
2013-6-26,100,87,76,72,69,65,81,58,34,29.87,29.76,10,5,21,0.00
2013-6-27,103,87,76,72,67,58,83,56,27,29.93,29.78,12,2,22,0.00
2013-6-28,107,90,75,71,68,62,82,52,27,29.90,29.69,5,0,12,0.00
2013-6-29,107,91,75,72,66,61,75,47,23,29.77,29.63,7,1,17,0.00
2013-6-30,95,84,71,71,66,59,88,57,37,29.86,29.70,7,1,17,0.13
2013-7-1,88,81,72,68,56,51,65,43,31,29.92,29.79,10,2,24,0.02
2013-7-2,92,79,64,60,54,47,78,47,25,30.00,29.87,7,1,17,0.00
2013-7-3,96,82,65,59,52,46,66,37,21,29.95,29.80,6,1,15,0.00
2013-7-4,94,82,70,67,60,54,83,50,31,29.91,29.78,6,1,13,0.00
2013-7-5,97,85,72,69,62,58,83,49,28,29.90,29.72,9,2,20,0.00
2013-7-6,96,84,72,71,66,60,82,58,31,29.84,29.71,7,2,20,0.00
2013-7-7,99,85,75,73,70,66,86,65,36,29.88,29.76,12,2,25,0.02
2013-7-8,88,80,75,76,71,67,89,76,51,30.01,29.87,11,2,22,0.04
2013-7-9,98,86,74,73,70,66,90,63,37,30.05,29.89,8,2,19,0.03
2013-7-10,101,86,75,73,67,-100,88,58,34,29.99,29.80,7,2,19,0.00
2013-7-11,100,88,76,73,68,62,83,56,30,29.91,29.76,6,2,16,0.00
2013-7-12,100,88,75,71,66,61,78,52,30,29.87,29.75,7,1,15,0.00
2013-7-13,104,90,76,70,65,61,73,46,27,29.88,29.72,6,1,13,0.00
2013-7-14,96,83,73,69,66,61,82,57,34,29.82,29.75,13,3,24,0.00
2013-7-15,74,71,69,72,68,65,95,92,84,29.95,29.80,11,1,18,1.43
2013-7-16,88,77,71,75,71,69,95,84,53,30.06,29.93,11,2,19,0.33
2013-7-17,84,75,72,73,71,69,94,86,68,30.10,30.03,6,1,13,0.27
2013-7-18,95,86,77,71,69,67,73,58,43,30.03,29.90,10,1,20,1.52
2013-7-19,97,83,71,73,69,65,93,67,38,29.99,29.80,6,1,15,0.00
2013-7-20,98,83,73,73,70,68,91,68,40,29.91,29.74,11,1,19,0.00
2013-7-21,95,83,75,75,72,70,90,72,48,29.86,29.76,9,2,20,0.00
2013-7-22,95,85,77,75,72,69,85,68,46,29.89,29.78,8,3,20,0.00
2013-7-23,97,86,77,74,70,64,83,62,37,29.90,29.75,9,4,21,0.00
2013-7-24,96,85,76,75,72,69,86,68,46,29.90,29.76,8,1,19,0.00
2013-7-25,98,87,76,73,70,64,86,60,37,29.92,29.83,5,1,14,0.00
2013-7-26,100,87,76,76,71,68,85,61,39,29.92,29.75,9,2,17,0.11
2013-7-27,88,79,75,75,71,67,92,78,55,29.90,29.79,7,2,16,0.19
2013-7-28,95,83,72,75,70,67,89,69,46,29.86,29.73,8,2,15,0.00
2013-7-29,97,86,77,74,70,64,84,62,36,29.91,29.82,9,4,22,0.00
2013-7-30,98,86,76,73,70,66,85,62,36,30.00,29.85,7,2,22,0.00
2013-7-31,102,87,75,72,68,62,87,57,30,29.99,29.82,8,1,16,0.00
2013-8-1,102,90,77,72,68,64,75,52,30,29.92,29.78,6,1,15,0.00
2013-8-2,100,88,78,70,67,64,67,50,33,29.88,29.76,7,2,20,0.00
2013-8-3,99,88,77,72,69,64,83,57,34,29.91,29.81,9,2,22,0.00
2013-8-4,98,87,77,74,72,68,86,62,40,29.98,29.80,8,2,19,0.00
2013-8-5,101,87,75,72,69,64,84,57,32,29.93,29.75,8,2,21,0.00
2013-8-6,102,88,76,74,70,64,84,58,30,29.85,29.69,8,3,21,0.00
2013-8-7,103,89,77,74,70,61,82,57,29,29.82,29.65,9,2,20,0.00
2013-8-8,103,89,76,74,68,59,83,55,29,29.79,29.65,8,2,20,0.00
2013-8-9,101,87,74,72,66,55,89,56,23,29.86,29.74,7,1,16,0.00
2013-8-10,101,88,76,72,69,64,81,56,31,29.95,29.80,12,2,27,0.00
2013-8-11,99,86,78,73,70,67,82,62,37,29.98,29.84,7,1,24,0.00
2013-8-12,99,85,74,71,69,65,87,62,36,29.97,29.82,7,2,17,0.00
2013-8-13,103,88,77,72,66,-100,83,54,30,29.93,29.77,11,2,17,0.00
2013-8-14,104,83,78,72,63,-100,78,61,31,29.92,29.79,8,2,21,0.00
2013-8-15,93,72,72,73,52,-100,94,72,49,29.93,29.81,8,1,13,0.24
2013-8-16,94,78,72,74,64,-100,96,71,36,29.97,29.83,6,1,13,0.22
2013-8-17,93,80,70,68,62,-100,87,59,33,29.97,29.83,9,1,19,0.01
2013-8-18,94,82,67,68,61,56,85,52,28,29.97,29.87,8,1,16,0.00
2013-8-19,95,78,70,68,50,-100,81,51,34,29.96,29.81,7,1,13,0.00
2013-8-20,95,81,70,68,63,-100,83,58,31,29.94,29.83,10,2,18,0.00
2013-8-21,94,82,73,73,69,66,87,66,42,29.99,29.85,8,2,20,0.00
2013-8-22,96,86,74,73,70,67,88,60,40,30.00,29.81,7,1,13,0.00
2013-8-23,97,86,76,73,69,65,85,59,36,29.93,29.78,6,1,17,0.00
2013-8-24,98,87,78,71,66,-100,75,53,37,29.95,29.82,8,1,17,0.00
2013-8-25,94,85,75,72,69,67,83,60,44,29.98,29.90,9,3,21,0.00
2013-8-26,90,80,74,71,70,68,86,71,49,30.04,29.92,11,3,20,0.00
2013-8-27,84,76,73,74,71,69,92,86,66,30.03,29.96,8,2,14,0.00
2013-8-28,96,91,83,71,68,66,60,47,40,30.02,29.89,6,2,14,0.00
2013-8-29,102,87,73,70,67,63,84,55,30,30.00,29.84,5,1,12,0.00
2013-8-30,106,89,76,68,66,62,71,49,27,29.92,29.75,6,1,12,0.00
2013-8-31,104,88,76,70,66,-100,78,51,31,29.83,29.69,7,1,17,0.00
2013-9-1,101,88,76,72,68,65,78,54,35,29.81,29.68,7,1,16,0.00
2013-9-2,100,86,77,72,69,66,83,61,33,29.87,29.72,9,1,21,0.07
2013-9-3,103,87,73,72,69,65,90,59,30,29.91,29.77,5,0,10,0.07
2013-9-4,102,87,76,72,69,65,88,58,35,29.93,29.80,6,1,17,0.06
2013-9-5,98,84,74,71,68,66,82,61,36,30.01,29.87,6,1,15,0.06
2013-9-6,96,85,74,72,69,64,86,62,38,29.99,29.83,9,2,20,0.00
2013-9-7,97,80,75,74,68,-100,88,69,39,29.93,29.79,14,1,26,0.00
2013-9-8,94,80,72,73,70,68,92,73,45,29.90,29.78,8,2,16,0.00
2013-9-9,91,79,73,72,70,67,90,75,48,29.91,29.81,11,1,24,0.00
2013-9-10,92,79,73,72,70,67,92,75,46,29.97,29.87,9,2,20,0.00
2013-9-11,93,83,74,73,68,62,89,64,37,30.01,29.88,7,2,15,0.00
2013-9-12,96,84,73,73,67,63,90,61,36,29.98,29.81,7,1,14,0.00
2013-9-13,96,85,71,70,65,61,83,55,33,29.87,29.70,7,1,15,0.00
2013-9-14,96,84,72,70,63,-100,77,53,35,29.84,29.72,7,1,18,0.00
2013-9-15,92,83,74,72,69,66,88,64,44,29.91,29.82,6,1,12,0.00
2013-9-16,91,82,75,73,71,69,89,71,51,29.97,29.85,6,1,17,0.03
2013-9-17,91,81,73,74,71,68,93,74,48,29.97,29.82,8,1,18,0.03
2013-9-18,81,77,74,72,71,69,90,82,68,29.92,29.84,3,0,8,0.00
2013-9-19,90,80,76,75,72,70,92,77,54,29.86,29.71,10,1,24,0.18
2013-9-20,77,74,70,74,71,68,95,93,87,29.79,29.70,6,1,16,3.69
2013-9-21,85,72,65,68,57,-100,93,65,33,29.86,29.75,10,3,17,0.03
2013-9-22,84,70,56,59,53,47,91,61,28,29.84,29.70,6,1,14,0.00
2013-9-23,89,72,57,60,55,48,92,60,25,29.78,29.66,5,0,10,0.00
2013-9-24,96,78,62,66,60,56,88,59,32,29.85,29.74,7,1,11,0.00
2013-9-25,98,81,65,66,62,59,87,57,32,29.81,29.67,6,1,13,0.00
2013-9-26,91,80,67,71,61,52,78,54,34,29.80,29.70,7,2,20,0.00
2013-9-27,90,80,75,77,73,70,88,79,60,29.82,29.72,10,3,20,0.00
2013-9-28,89,79,73,76,71,-100,92,80,61,29.90,29.78,7,2,24,0.97
2013-9-29,77,69,63,70,64,61,95,86,65,29.99,29.85,6,1,13,1.13
2013-10-2,81,80,78,72,71,71,81,76,71,29.81,29.80,7,5,14,0.00
2013-10-3,91,82,75,73,70,68,89,70,50,29.83,29.72,7,2,18,0.00
2013-10-4,90,80,73,71,70,68,89,71,50,29.82,29.72,10,4,23,0.00
2013-10-5,88,75,62,71,63,42,90,68,47,30.00,29.78,11,2,20,0.00
2013-10-6,79,66,53,55,46,38,92,55,23,30.07,29.97,10,2,22,0.27
2013-10-7,85,65,48,55,48,40,91,61,28,30.11,29.96,4,0,9,0.01
2013-10-8,85,69,52,55,51,48,89,57,30,30.03,29.89,5,1,13,0.00
2013-10-9,83,71,58,61,56,50,89,62,45,29.98,29.86,9,1,17,0.00
2013-10-10,84,74,63,67,63,60,91,71,51,29.96,29.79,8,2,19,0.00
2013-10-11,88,77,71,73,69,65,87,78,58,29.87,29.73,9,1,17,0.00
2013-10-13,73,71,70,71,69,68,96,93,91,30.03,29.96,5,1,12,0.06
2013-10-14,79,74,71,74,70,69,95,90,79,30.01,29.83,8,3,19,0.15
2013-10-15,83,73,58,71,68,54,90,82,65,29.95,29.78,8,2,18,0.07
2013-10-16,61,56,53,58,54,51,95,91,85,30.03,29.91,5,1,12,0.77
2013-10-17,75,61,50,54,50,46,89,68,38,30.09,29.91,6,0,11,0.01
2013-10-18,70,62,57,61,55,52,90,78,72,29.94,29.82,3,1,9,0.00
2013-10-22,58,56,55,47,47,46,73,70,66,30.06,30.05,0,0,0,0.00
2013-10-23,84,69,50,53,47,44,85,50,27,30.11,30.00,7,1,13,0.00
2013-10-24,84,67,49,53,48,43,81,55,29,30.16,30.05,5,1,12,0.00
2013-10-25,76,70,52,61,58,49,90,67,55,30.26,30.12,8,2,15,0.00
2013-10-26,79,68,62,65,60,-100,89,76,59,30.15,29.97,8,2,17,0.00
2013-10-27,75,67,63,65,62,61,94,84,63,30.05,29.93,1,0,18,0.19
2013-10-28,80,70,65,70,63,-100,95,83,63,30.01,29.88,9,2,22,0.10
2013-10-29,83,75,70,70,68,65,87,79,61,29.98,29.88,10,3,23,0.00
2013-10-30,81,76,72,73,71,68,94,86,74,29.95,29.72,9,2,23,1.53
2013-10-31,79,70,56,69,59,39,95,74,24,29.82,29.66,12,1,29,1.15
2013-11-1,83,65,48,58,46,40,92,57,22,29.96,29.75,9,1,22,0.01
2013-11-2,72,60,52,46,37,-100,76,47,26,30.24,30.08,6,1,16,0.00
2013-11-3,68,56,42,52,43,39,93,65,37,30.17,29.96,4,0,17,0.00
2013-11-4,64,62,59,62,58,52,92,87,74,30.00,29.90,6,0,20,0.04
2013-11-12,58,52,42,54,43,25,93,73,49,30.59,30.19,13,2,27,0.00
2013-11-13,57,43,32,30,27,24,75,54,32,30.63,30.38,1,0,9,0.00
2013-11-14,61,49,32,47,37,29,92,66,37,30.33,29.99,5,1,15,0.00
2013-11-15,78,64,51,59,54,48,92,73,51,29.99,29.78,7,0,13,0.00
2013-11-16,79,70,64,69,62,-100,87,78,63,29.84,29.65,12,2,23,0.00
2013-11-17,88,76,62,70,64,56,89,70,38,29.86,29.68,6,1,14,0.00
2013-11-18,74,65,56,58,53,48,87,66,52,30.03,29.87,3,0,10,0.00
2013-11-19,71,63,55,51,46,42,71,55,40,30.09,29.92,5,1,13,0.00
2013-11-20,71,63,58,64,55,47,92,76,64,29.95,29.81,5,1,14,0.00
2013-11-21,77,72,66,71,68,64,96,87,76,29.97,29.85,6,0,16,0.22
2013-11-22,71,39,34,69,37,31,93,91,88,30.38,29.97,12,4,23,0.41
2013-11-23,41,37,34,38,33,-100,92,89,85,30.47,30.35,7,2,21,0.09
2013-11-24,41,37,33,37,32,29,90,81,69,30.47,30.29,5,0,13,0.17
2013-11-25,39,37,33,37,35,31,94,91,88,30.32,30.06,5,1,14,0.73
2013-11-26,38,38,38,34,34,33,85,84,83,30.16,30.11,6,2,13,0.63
2013-11-27,39,38,38,29,29,28,70,68,67,30.34,30.32,1,0,5,0.00
2013-11-28,35,34,33,31,30,30,89,88,85,30.36,30.34,0,0,0,0.00
2013-12-4,56,53,52,47,29,-100,78,68,74,29.64,29.63,0,0,0,0.00
2013-12-5,61,44,31,59,40,25,94,85,67,30.06,29.70,4,1,18,0.00
2013-12-6,31,30,29,27,25,23,86,80,77,30.42,30.05,5,1,16,0.02
2013-12-7,27,26,26,20,19,19,76,76,75,30.44,30.42,5,1,14,0.00
2013-12-8,27,26,26,23,22,22,85,85,85,30.28,30.20,0,0,0,0.00
2013-12-9,36,36,34,34,33,31,92,91,90,30.07,30.03,0,0,0,0.00
2013-12-10,32,32,31,28,28,27,86,86,85,30.38,30.37,3,0,12,0.04
2013-12-11,32,31,30,27,26,25,85,81,78,30.32,30.30,0,0,0,0.00
2013-12-12,39,36,35,30,29,28,75,73,68,30.53,30.51,0,0,0,0.00
2013-12-13,43,43,43,34,34,34,71,70,69,30.27,30.22,2,0,8,0.00
2013-12-14,48,48,47,47,46,45,95,94,94,29.85,29.83,0,0,0,0.21
2013-12-15,35,35,35,31,30,30,84,82,81,30.32,30.31,0,0,0,0.01
2013-12-16,37,36,35,33,32,32,87,86,84,30.26,30.25,0,0,0,0.00
2013-12-17,42,42,42,34,34,34,74,74,74,30.20,30.20,0,0,0,0.00
2013-12-20,65,65,65,61,61,61,88,88,88,29.74,29.73,8,5,15,0.00
2013-12-21,71,71,71,66,66,66,84,84,83,29.59,29.56,9,4,18,0.00
2013-12-22,46,44,43,41,41,40,88,87,82,29.80,29.78,0,0,0,0.23
2013-12-23,36,34,33,28,28,27,79,76,73,30.36,30.35,0,0,0,0.01
2013-12-24,57,40,34,32,31,30,88,73,35,30.51,30.29,5,1,11,0.00
2013-12-25,43,42,42,38,38,36,87,84,77,30.24,30.22,0,0,8,0.00
2013-12-26,46,44,43,37,36,35,73,72,69,30.37,30.36,3,1,10,0.00
2013-12-27,42,42,42,39,39,39,89,89,88,30.34,30.33,0,0,0,0.00
2013-12-28,52,42,42,45,31,-100,88,78,76,30.28,29.96,0,0,0,0.00
2013-12-29,48,46,45,43,42,41,88,87,83,29.97,29.94,0,0,0,0.00
2013-12-30,32,32,32,28,28,27,86,84,83,30.24,30.23,6,4,17,0.01
2013-12-31,37,37,37,32,32,31,83,81,78,30.37,30.36,0,0,0,0.00
2014-1-1,39,38,38,31,31,30,76,74,71,30.20,30.16,0,0,0,0.00
2014-1-2,51,49,48,48,40,37,88,70,63,30.15,30.07,2,0,10,0.00